sensor_id;sensor_type;location;lat;lon;timestamp;pressure;altitude;pressure_sealevel;temperature
65290;BMP180;51893;59.754;10.110;2023-03-14T00:00:14;97304.80;;;-1.30
65290;BMP180;51893;59.754;10.110;2023-03-14T00:03:02;97305.40;;;-1.30
65290;BMP180;51893;59.754;10.110;2023-03-14T00:05:31;97315.60;;;-1.22
65290;BMP180;51893;59.754;10.110;2023-03-14T00:07:58;97321.20;;;-1.20
65290;BMP180;51893;59.754;10.110;2023-03-14T00:10:28;97333.20;;;-1.18
65290;BMP180;51893;59.754;10.110;2023-03-14T00:12:56;97335.20;;;-1.10
65290;BMP180;51893;59.754;10.110;2023-03-14T00:15:25;97342.00;;;-1.14
65290;BMP180;51893;59.754;10.110;2023-03-14T00:17:55;97350.40;;;-1.10
65290;BMP180;51893;59.754;10.110;2023-03-14T00:20:24;97352.80;;;-1.00
65290;BMP180;51893;59.754;10.110;2023-03-14T00:22:52;97354.00;;;-1.00
65290;BMP180;51893;59.754;10.110;2023-03-14T00:25:20;97370.00;;;-0.98
65290;BMP180;51893;59.754;10.110;2023-03-14T00:27:51;97372.40;;;-0.90
65290;BMP180;51893;59.754;10.110;2023-03-14T00:30:20;97374.80;;;-0.90
65290;BMP180;51893;59.754;10.110;2023-03-14T00:32:47;97370.00;;;-0.96
65290;BMP180;51893;59.754;10.110;2023-03-14T00:35:15;97382.60;;;-1.10
65290;BMP180;51893;59.754;10.110;2023-03-14T00:37:44;97387.20;;;-1.16
65290;BMP180;51893;59.754;10.110;2023-03-14T00:40:13;97399.60;;;-1.10
65290;BMP180;51893;59.754;10.110;2023-03-14T00:42:41;97407.60;;;-1.10
65290;BMP180;51893;59.754;10.110;2023-03-14T00:45:10;97418.60;;;-1.10
65290;BMP180;51893;59.754;10.110;2023-03-14T00:47:39;97423.00;;;-1.00
65290;BMP180;51893;59.754;10.110;2023-03-14T00:50:08;97428.00;;;-1.00
65290;BMP180;51893;59.754;10.110;2023-03-14T00:52:37;97436.60;;;-0.98
65290;BMP180;51893;59.754;10.110;2023-03-14T00:55:07;97444.40;;;-0.90
65290;BMP180;51893;59.754;10.110;2023-03-14T00:57:35;97437.80;;;-0.90
65290;BMP180;51893;59.754;10.110;2023-03-14T01:00:05;97441.80;;;-0.82
65290;BMP180;51893;59.754;10.110;2023-03-14T01:02:35;97450.60;;;-0.90
65290;BMP180;51893;59.754;10.110;2023-03-14T01:05:07;97456.40;;;-1.00
65290;BMP180;51893;59.754;10.110;2023-03-14T01:07:36;97458.20;;;-1.00
65290;BMP180;51893;59.754;10.110;2023-03-14T01:10:06;97462.00;;;-1.00
65290;BMP180;51893;59.754;10.110;2023-03-14T01:12:34;97467.20;;;-1.00
65290;BMP180;51893;59.754;10.110;2023-03-14T01:15:04;97483.00;;;-1.00
65290;BMP180;51893;59.754;10.110;2023-03-14T01:17:32;97494.20;;;-1.00
65290;BMP180;51893;59.754;10.110;2023-03-14T01:20:00;97502.40;;;-1.00
65290;BMP180;51893;59.754;10.110;2023-03-14T01:22:28;97513.40;;;-1.00
65290;BMP180;51893;59.754;10.110;2023-03-14T01:24:56;97520.20;;;-1.10
65290;BMP180;51893;59.754;10.110;2023-03-14T01:27:26;97520.20;;;-1.14
65290;BMP180;51893;59.754;10.110;2023-03-14T01:29:53;97528.80;;;-1.18
65290;BMP180;51893;59.754;10.110;2023-03-14T01:32:24;97527.40;;;-1.20
65290;BMP180;51893;59.754;10.110;2023-03-14T01:34:53;97527.00;;;-1.20
65290;BMP180;51893;59.754;10.110;2023-03-14T01:37:21;97538.80;;;-1.20
65290;BMP180;51893;59.754;10.110;2023-03-14T01:39:49;97545.20;;;-1.40
65290;BMP180;51893;59.754;10.110;2023-03-14T01:42:18;97545.00;;;-1.50
65290;BMP180;51893;59.754;10.110;2023-03-14T01:45:01;97546.00;;;-1.60
65290;BMP180;51893;59.754;10.110;2023-03-14T01:47:29;97540.80;;;-1.70
65290;BMP180;51893;59.754;10.110;2023-03-14T01:50:09;97543.20;;;-1.70
65290;BMP180;51893;59.754;10.110;2023-03-14T01:52:46;97531.00;;;-1.80
65290;BMP180;51893;59.754;10.110;2023-03-14T01:55:20;97531.20;;;-1.80
65290;BMP180;51893;59.754;10.110;2023-03-14T01:58:03;97537.00;;;-1.80
65290;BMP180;51893;59.754;10.110;2023-03-14T02:00:35;97540.20;;;-1.80
65290;BMP180;51893;59.754;10.110;2023-03-14T02:03:11;97543.40;;;-1.90
65290;BMP180;51893;59.754;10.110;2023-03-14T02:05:42;97557.00;;;-1.90
65290;BMP180;51893;59.754;10.110;2023-03-14T02:08:15;97563.20;;;-2.00
65290;BMP180;51893;59.754;10.110;2023-03-14T02:10:48;97576.20;;;-2.10
65290;BMP180;51893;59.754;10.110;2023-03-14T02:13:19;97577.40;;;-2.20
65290;BMP180;51893;59.754;10.110;2023-03-14T02:15:49;97591.60;;;-2.20
65290;BMP180;51893;59.754;10.110;2023-03-14T02:18:19;97596.60;;;-2.30
65290;BMP180;51893;59.754;10.110;2023-03-14T02:21:01;97599.20;;;-2.30
65290;BMP180;51893;59.754;10.110;2023-03-14T02:23:58;97591.20;;;-2.30
65290;BMP180;51893;59.754;10.110;2023-03-14T02:26:43;97580.00;;;-2.30
65290;BMP180;51893;59.754;10.110;2023-03-14T02:29:13;97583.80;;;-2.26
65290;BMP180;51893;59.754;10.110;2023-03-14T02:31:40;97589.60;;;-2.20
65290;BMP180;51893;59.754;10.110;2023-03-14T02:34:08;97587.80;;;-2.10
65290;BMP180;51893;59.754;10.110;2023-03-14T02:36:37;97593.60;;;-2.10
65290;BMP180;51893;59.754;10.110;2023-03-14T02:39:19;97584.40;;;-2.10
65290;BMP180;51893;59.754;10.110;2023-03-14T02:41:50;97579.00;;;-2.06
65290;BMP180;51893;59.754;10.110;2023-03-14T02:44:18;97590.00;;;-2.00
65290;BMP180;51893;59.754;10.110;2023-03-14T02:46:48;97598.80;;;-1.94
65290;BMP180;51893;59.754;10.110;2023-03-14T02:49:17;97613.80;;;-2.00
65290;BMP180;51893;59.754;10.110;2023-03-14T02:51:46;97615.40;;;-2.10
65290;BMP180;51893;59.754;10.110;2023-03-14T02:54:16;97609.40;;;-2.10
65290;BMP180;51893;59.754;10.110;2023-03-14T02:56:44;97601.00;;;-2.10
65290;BMP180;51893;59.754;10.110;2023-03-14T02:59:12;97599.00;;;-2.12
65290;BMP180;51893;59.754;10.110;2023-03-14T03:01:40;97599.40;;;-2.14
65290;BMP180;51893;59.754;10.110;2023-03-14T03:04:08;97610.20;;;-2.10
65290;BMP180;51893;59.754;10.110;2023-03-14T03:06:36;97616.60;;;-2.06
65290;BMP180;51893;59.754;10.110;2023-03-14T03:09:04;97618.80;;;-2.00
65290;BMP180;51893;59.754;10.110;2023-03-14T03:11:34;97622.80;;;-1.90
65290;BMP180;51893;59.754;10.110;2023-03-14T03:14:01;97628.60;;;-1.90
65290;BMP180;51893;59.754;10.110;2023-03-14T03:16:29;97630.80;;;-1.90
65290;BMP180;51893;59.754;10.110;2023-03-14T03:18:57;97621.80;;;-1.86
65290;BMP180;51893;59.754;10.110;2023-03-14T03:21:25;97629.00;;;-1.90
65290;BMP180;51893;59.754;10.110;2023-03-14T03:23:53;97630.20;;;-1.80
65290;BMP180;51893;59.754;10.110;2023-03-14T03:26:24;97624.80;;;-1.86
65290;BMP180;51893;59.754;10.110;2023-03-14T03:28:52;97634.20;;;-1.88
65290;BMP180;51893;59.754;10.110;2023-03-14T03:31:23;97642.00;;;-1.80
65290;BMP180;51893;59.754;10.110;2023-03-14T03:33:51;97654.80;;;-1.80
65290;BMP180;51893;59.754;10.110;2023-03-14T03:36:24;97670.60;;;-1.80
65290;BMP180;51893;59.754;10.110;2023-03-14T03:38:54;97685.20;;;-1.80
65290;BMP180;51893;59.754;10.110;2023-03-14T03:41:22;97697.80;;;-1.80
65290;BMP180;51893;59.754;10.110;2023-03-14T03:43:49;97701.20;;;-1.84
65290;BMP180;51893;59.754;10.110;2023-03-14T03:46:18;97706.20;;;-1.96
65290;BMP180;51893;59.754;10.110;2023-03-14T03:48:46;97715.40;;;-2.00
65290;BMP180;51893;59.754;10.110;2023-03-14T03:51:16;97729.00;;;-2.00
65290;BMP180;51893;59.754;10.110;2023-03-14T03:53:44;97735.40;;;-2.00
65290;BMP180;51893;59.754;10.110;2023-03-14T03:56:12;97735.00;;;-2.00
65290;BMP180;51893;59.754;10.110;2023-03-14T03:58:41;97739.20;;;-2.00
65290;BMP180;51893;59.754;10.110;2023-03-14T04:01:10;97744.00;;;-2.00
65290;BMP180;51893;59.754;10.110;2023-03-14T04:03:40;97751.40;;;-2.08
65290;BMP180;51893;59.754;10.110;2023-03-14T04:06:12;97752.80;;;-2.10
65290;BMP180;51893;59.754;10.110;2023-03-14T04:08:41;97747.80;;;-2.20
65290;BMP180;51893;59.754;10.110;2023-03-14T04:11:09;97737.40;;;-2.18
65290;BMP180;51893;59.754;10.110;2023-03-14T04:13:37;97729.40;;;-2.10
65290;BMP180;51893;59.754;10.110;2023-03-14T04:16:17;97735.20;;;-2.00
65290;BMP180;51893;59.754;10.110;2023-03-14T04:18:47;97733.00;;;-2.00
65290;BMP180;51893;59.754;10.110;2023-03-14T04:21:16;97737.60;;;-2.00
65290;BMP180;51893;59.754;10.110;2023-03-14T04:23:44;97751.00;;;-2.00
65290;BMP180;51893;59.754;10.110;2023-03-14T04:26:12;97758.00;;;-2.00
65290;BMP180;51893;59.754;10.110;2023-03-14T04:28:42;97771.20;;;-2.00
65290;BMP180;51893;59.754;10.110;2023-03-14T04:31:15;97779.20;;;-2.00
65290;BMP180;51893;59.754;10.110;2023-03-14T04:33:45;97782.60;;;-2.00
65290;BMP180;51893;59.754;10.110;2023-03-14T04:36:14;97775.60;;;-1.92
65290;BMP180;51893;59.754;10.110;2023-03-14T04:38:42;97779.20;;;-1.90
65290;BMP180;51893;59.754;10.110;2023-03-14T04:41:10;97776.20;;;-2.00
65290;BMP180;51893;59.754;10.110;2023-03-14T04:43:38;97783.40;;;-2.00
65290;BMP180;51893;59.754;10.110;2023-03-14T04:46:06;97778.20;;;-1.96
65290;BMP180;51893;59.754;10.110;2023-03-14T04:48:34;97780.60;;;-1.90
65290;BMP180;51893;59.754;10.110;2023-03-14T04:51:04;97785.20;;;-1.90
65290;BMP180;51893;59.754;10.110;2023-03-14T04:53:35;97791.80;;;-1.90
65290;BMP180;51893;59.754;10.110;2023-03-14T04:56:05;97789.60;;;-1.80
65290;BMP180;51893;59.754;10.110;2023-03-14T04:58:33;97786.40;;;-1.70
65290;BMP180;51893;59.754;10.110;2023-03-14T05:01:06;97780.00;;;-1.70
65290;BMP180;51893;59.754;10.110;2023-03-14T05:03:33;97781.60;;;-1.70
65290;BMP180;51893;59.754;10.110;2023-03-14T05:06:05;97789.80;;;-1.70
65290;BMP180;51893;59.754;10.110;2023-03-14T05:08:33;97796.60;;;-1.70
65290;BMP180;51893;59.754;10.110;2023-03-14T05:11:01;97798.20;;;-1.68
65290;BMP180;51893;59.754;10.110;2023-03-14T05:13:30;97803.00;;;-1.64
65290;BMP180;51893;59.754;10.110;2023-03-14T05:16:08;97805.80;;;-1.70
65290;BMP180;51893;59.754;10.110;2023-03-14T05:18:38;97806.20;;;-1.70
65290;BMP180;51893;59.754;10.110;2023-03-14T05:21:06;97801.20;;;-1.70
65290;BMP180;51893;59.754;10.110;2023-03-14T05:23:35;97802.80;;;-1.70
65290;BMP180;51893;59.754;10.110;2023-03-14T05:26:04;97806.20;;;-1.70
65290;BMP180;51893;59.754;10.110;2023-03-14T05:28:32;97806.00;;;-1.70
65290;BMP180;51893;59.754;10.110;2023-03-14T05:31:00;97812.40;;;-1.70
65290;BMP180;51893;59.754;10.110;2023-03-14T05:33:30;97813.60;;;-1.70
65290;BMP180;51893;59.754;10.110;2023-03-14T05:35:57;97825.20;;;-1.72
65290;BMP180;51893;59.754;10.110;2023-03-14T05:38:29;97831.20;;;-1.70
65290;BMP180;51893;59.754;10.110;2023-03-14T05:40:57;97840.60;;;-1.70
65290;BMP180;51893;59.754;10.110;2023-03-14T05:43:25;97842.20;;;-1.70
65290;BMP180;51893;59.754;10.110;2023-03-14T05:45:53;97849.20;;;-1.60
65290;BMP180;51893;59.754;10.110;2023-03-14T05:48:23;97856.00;;;-1.60
65290;BMP180;51893;59.754;10.110;2023-03-14T05:50:57;97854.00;;;-1.60
65290;BMP180;51893;59.754;10.110;2023-03-14T05:53:26;97851.60;;;-1.68
65290;BMP180;51893;59.754;10.110;2023-03-14T05:55:58;97865.40;;;-1.70
65290;BMP180;51893;59.754;10.110;2023-03-14T05:58:26;97874.00;;;-1.70
65290;BMP180;51893;59.754;10.110;2023-03-14T06:00:57;97884.20;;;-1.70
65290;BMP180;51893;59.754;10.110;2023-03-14T06:03:24;97881.80;;;-1.70
65290;BMP180;51893;59.754;10.110;2023-03-14T06:05:53;97878.20;;;-1.60
65290;BMP180;51893;59.754;10.110;2023-03-14T06:08:23;97882.20;;;-1.70
65290;BMP180;51893;59.754;10.110;2023-03-14T06:10:52;97888.40;;;-1.70
65290;BMP180;51893;59.754;10.110;2023-03-14T06:13:20;97895.20;;;-1.60
65290;BMP180;51893;59.754;10.110;2023-03-14T06:15:48;97899.80;;;-1.60
65290;BMP180;51893;59.754;10.110;2023-03-14T06:18:16;97898.40;;;-1.50
65290;BMP180;51893;59.754;10.110;2023-03-14T06:20:44;97907.00;;;-1.50
65290;BMP180;51893;59.754;10.110;2023-03-14T06:23:13;97918.40;;;-1.50
65290;BMP180;51893;59.754;10.110;2023-03-14T06:25:41;97924.20;;;-1.50
65290;BMP180;51893;59.754;10.110;2023-03-14T06:28:09;97935.00;;;-1.50
65290;BMP180;51893;59.754;10.110;2023-03-14T06:30:36;97950.80;;;-1.50
65290;BMP180;51893;59.754;10.110;2023-03-14T06:33:05;97966.60;;;-1.50
65290;BMP180;51893;59.754;10.110;2023-03-14T06:35:33;97978.00;;;-1.50
65290;BMP180;51893;59.754;10.110;2023-03-14T06:38:05;97990.20;;;-1.50
65290;BMP180;51893;59.754;10.110;2023-03-14T06:40:33;97996.00;;;-1.60
65290;BMP180;51893;59.754;10.110;2023-03-14T06:43:01;97998.80;;;-1.60
65290;BMP180;51893;59.754;10.110;2023-03-14T06:45:32;97997.20;;;-1.60
65290;BMP180;51893;59.754;10.110;2023-03-14T06:48:01;97994.80;;;-1.60
65290;BMP180;51893;59.754;10.110;2023-03-14T06:50:30;97994.20;;;-1.52
65290;BMP180;51893;59.754;10.110;2023-03-14T06:52:57;97993.00;;;-1.44
65290;BMP180;51893;59.754;10.110;2023-03-14T06:55:25;97999.20;;;-1.40
65290;BMP180;51893;59.754;10.110;2023-03-14T06:57:53;98008.60;;;-1.40
65290;BMP180;51893;59.754;10.110;2023-03-14T07:00:23;98014.60;;;-1.40
65290;BMP180;51893;59.754;10.110;2023-03-14T07:02:53;98016.60;;;-1.40
65290;BMP180;51893;59.754;10.110;2023-03-14T07:05:23;98019.00;;;-1.40
65290;BMP180;51893;59.754;10.110;2023-03-14T07:07:51;98028.40;;;-1.50
65290;BMP180;51893;59.754;10.110;2023-03-14T07:10:19;98034.00;;;-1.46
65290;BMP180;51893;59.754;10.110;2023-03-14T07:12:52;98042.00;;;-1.50
65290;BMP180;51893;59.754;10.110;2023-03-14T07:15:22;98046.20;;;-1.50
65290;BMP180;51893;59.754;10.110;2023-03-14T07:17:49;98053.20;;;-1.40
65290;BMP180;51893;59.754;10.110;2023-03-14T07:20:18;98063.80;;;-1.42
65290;BMP180;51893;59.754;10.110;2023-03-14T07:22:50;98066.60;;;-1.40
65290;BMP180;51893;59.754;10.110;2023-03-14T07:25:18;98061.20;;;-1.40
65290;BMP180;51893;59.754;10.110;2023-03-14T07:27:46;98062.80;;;-1.40
65290;BMP180;51893;59.754;10.110;2023-03-14T07:30:17;98062.80;;;-1.30
65290;BMP180;51893;59.754;10.110;2023-03-14T07:32:45;98065.60;;;-1.30
65290;BMP180;51893;59.754;10.110;2023-03-14T07:35:13;98085.20;;;-1.30
65290;BMP180;51893;59.754;10.110;2023-03-14T07:37:42;98093.80;;;-1.22
65290;BMP180;51893;59.754;10.110;2023-03-14T07:40:11;98093.80;;;-1.20
65290;BMP180;51893;59.754;10.110;2023-03-14T07:42:43;98097.60;;;-1.20
65290;BMP180;51893;59.754;10.110;2023-03-14T07:45:11;98097.20;;;-1.20
65290;BMP180;51893;59.754;10.110;2023-03-14T07:47:40;98103.40;;;-1.20
65290;BMP180;51893;59.754;10.110;2023-03-14T07:50:09;98106.20;;;-1.20
65290;BMP180;51893;59.754;10.110;2023-03-14T07:52:37;98111.20;;;-1.10
65290;BMP180;51893;59.754;10.110;2023-03-14T07:55:06;98114.80;;;-1.10
65290;BMP180;51893;59.754;10.110;2023-03-14T07:57:34;98109.60;;;-0.96
65290;BMP180;51893;59.754;10.110;2023-03-14T08:00:02;98107.80;;;-0.88
65290;BMP180;51893;59.754;10.110;2023-03-14T08:02:33;98107.80;;;-0.80
65290;BMP180;51893;59.754;10.110;2023-03-14T08:05:03;98118.00;;;-0.80
65290;BMP180;51893;59.754;10.110;2023-03-14T08:07:33;98120.40;;;-0.84
65290;BMP180;51893;59.754;10.110;2023-03-14T08:10:03;98120.40;;;-0.90
65290;BMP180;51893;59.754;10.110;2023-03-14T08:12:31;98124.80;;;-0.92
65290;BMP180;51893;59.754;10.110;2023-03-14T08:15:00;98124.00;;;-0.90
65290;BMP180;51893;59.754;10.110;2023-03-14T08:17:28;98130.00;;;-0.80
65290;BMP180;51893;59.754;10.110;2023-03-14T08:19:57;98136.40;;;-0.80
65290;BMP180;51893;59.754;10.110;2023-03-14T08:22:26;98142.00;;;-0.80
65290;BMP180;51893;59.754;10.110;2023-03-14T08:24:54;98148.40;;;-0.80
65290;BMP180;51893;59.754;10.110;2023-03-14T08:27:23;98153.60;;;-0.68
65290;BMP180;51893;59.754;10.110;2023-03-14T08:29:50;98157.20;;;-0.60
65290;BMP180;51893;59.754;10.110;2023-03-14T08:32:19;98168.40;;;-0.50
65290;BMP180;51893;59.754;10.110;2023-03-14T08:34:49;98169.20;;;-0.48
65290;BMP180;51893;59.754;10.110;2023-03-14T08:37:17;98168.20;;;-0.40
65290;BMP180;51893;59.754;10.110;2023-03-14T08:39:53;98178.40;;;-0.40
65290;BMP180;51893;59.754;10.110;2023-03-14T08:42:22;98192.60;;;-0.32
65290;BMP180;51893;59.754;10.110;2023-03-14T08:44:51;98200.00;;;-0.40
65290;BMP180;51893;59.754;10.110;2023-03-14T08:47:20;98211.40;;;-0.40
65290;BMP180;51893;59.754;10.110;2023-03-14T08:49:49;98222.80;;;-0.40
65290;BMP180;51893;59.754;10.110;2023-03-14T08:52:18;98232.00;;;-0.40
65290;BMP180;51893;59.754;10.110;2023-03-14T08:54:47;98225.80;;;-0.40
65290;BMP180;51893;59.754;10.110;2023-03-14T08:57:17;98238.80;;;-0.40
65290;BMP180;51893;59.754;10.110;2023-03-14T08:59:44;98237.20;;;-0.40
65290;BMP180;51893;59.754;10.110;2023-03-14T09:02:13;98245.40;;;-0.30
65290;BMP180;51893;59.754;10.110;2023-03-14T09:04:41;98242.20;;;-0.30
65290;BMP180;51893;59.754;10.110;2023-03-14T09:07:09;98254.80;;;-0.22
65290;BMP180;51893;59.754;10.110;2023-03-14T09:09:39;98251.40;;;-0.20
65290;BMP180;51893;59.754;10.110;2023-03-14T09:12:10;98253.80;;;-0.24
65290;BMP180;51893;59.754;10.110;2023-03-14T09:14:38;98253.80;;;-0.20
65290;BMP180;51893;59.754;10.110;2023-03-14T09:17:06;98250.60;;;-0.20
65290;BMP180;51893;59.754;10.110;2023-03-14T09:19:35;98257.20;;;-0.10
65290;BMP180;51893;59.754;10.110;2023-03-14T09:22:04;98265.80;;;-0.08
65290;BMP180;51893;59.754;10.110;2023-03-14T09:24:35;98257.60;;;0.00
65290;BMP180;51893;59.754;10.110;2023-03-14T09:27:03;98272.00;;;0.10
65290;BMP180;51893;59.754;10.110;2023-03-14T09:29:31;98285.20;;;0.20
65290;BMP180;51893;59.754;10.110;2023-03-14T09:31:59;98292.40;;;0.20
65290;BMP180;51893;59.754;10.110;2023-03-14T09:34:27;98303.00;;;0.20
65290;BMP180;51893;59.754;10.110;2023-03-14T09:36:57;98300.40;;;0.28
65290;BMP180;51893;59.754;10.110;2023-03-14T09:39:24;98301.40;;;0.30
65290;BMP180;51893;59.754;10.110;2023-03-14T09:41:57;98298.20;;;0.30
65290;BMP180;51893;59.754;10.110;2023-03-14T09:44:34;98298.20;;;0.38
65290;BMP180;51893;59.754;10.110;2023-03-14T09:47:12;98303.40;;;0.40
65290;BMP180;51893;59.754;10.110;2023-03-14T09:49:41;98302.80;;;0.50
65290;BMP180;51893;59.754;10.110;2023-03-14T09:52:31;98302.40;;;0.60
65290;BMP180;51893;59.754;10.110;2023-03-14T09:55:14;98299.20;;;0.80
65290;BMP180;51893;59.754;10.110;2023-03-14T09:57:45;98301.00;;;0.90
65290;BMP180;51893;59.754;10.110;2023-03-14T10:00:20;98305.40;;;1.10
65290;BMP180;51893;59.754;10.110;2023-03-14T10:05:42;98313.60;;;1.20
65290;BMP180;51893;59.754;10.110;2023-03-14T10:08:12;98317.00;;;1.30
65290;BMP180;51893;59.754;10.110;2023-03-14T10:10:42;98320.60;;;1.30
65290;BMP180;51893;59.754;10.110;2023-03-14T10:13:24;98320.20;;;1.20
65290;BMP180;51893;59.754;10.110;2023-03-14T10:16:01;98321.80;;;1.20
65290;BMP180;51893;59.754;10.110;2023-03-14T10:18:31;98331.20;;;1.20
65290;BMP180;51893;59.754;10.110;2023-03-14T10:21:30;98329.60;;;1.20
65290;BMP180;51893;59.754;10.110;2023-03-14T10:24:20;98338.80;;;1.20
65290;BMP180;51893;59.754;10.110;2023-03-14T10:26:53;98344.60;;;1.20
65290;BMP180;51893;59.754;10.110;2023-03-14T10:29:21;98346.40;;;1.20
65290;BMP180;51893;59.754;10.110;2023-03-14T10:32:10;98346.80;;;1.30
65290;BMP180;51893;59.754;10.110;2023-03-14T10:38:01;98364.20;;;1.50
65290;BMP180;51893;59.754;10.110;2023-03-14T10:40:37;98373.00;;;1.60
65290;BMP180;51893;59.754;10.110;2023-03-14T10:43:16;98372.80;;;1.70
65290;BMP180;51893;59.754;10.110;2023-03-14T10:46:14;98380.40;;;1.80
65290;BMP180;51893;59.754;10.110;2023-03-14T10:48:44;98383.20;;;2.00
65290;BMP180;51893;59.754;10.110;2023-03-14T10:54:19;98385.00;;;2.20
65290;BMP180;51893;59.754;10.110;2023-03-14T10:56:59;98386.80;;;2.30
65290;BMP180;51893;59.754;10.110;2023-03-14T10:59:41;98384.60;;;2.40
65290;BMP180;51893;59.754;10.110;2023-03-14T11:05:40;98401.00;;;2.60
65290;BMP180;51893;59.754;10.110;2023-03-14T11:08:21;98398.60;;;2.70
65290;BMP180;51893;59.754;10.110;2023-03-14T11:14:05;98406.40;;;2.80
65290;BMP180;51893;59.754;10.110;2023-03-14T11:16:51;98413.60;;;3.00
65290;BMP180;51893;59.754;10.110;2023-03-14T11:26:05;98435.40;;;3.20
65290;BMP180;51893;59.754;10.110;2023-03-14T11:28:41;98436.80;;;3.20
65290;BMP180;51893;59.754;10.110;2023-03-14T11:31:31;98438.60;;;3.26
65290;BMP180;51893;59.754;10.110;2023-03-14T11:34:48;98445.20;;;3.42
65290;BMP180;51893;59.754;10.110;2023-03-14T11:37:33;98450.60;;;3.60
65290;BMP180;51893;59.754;10.110;2023-03-14T11:40:23;98456.80;;;3.70
65290;BMP180;51893;59.754;10.110;2023-03-14T11:43:09;98462.60;;;3.60
65290;BMP180;51893;59.754;10.110;2023-03-14T11:45:42;98468.20;;;3.70
65290;BMP180;51893;59.754;10.110;2023-03-14T11:48:16;98468.80;;;3.56
65290;BMP180;51893;59.754;10.110;2023-03-14T11:50:49;98469.20;;;3.66
65290;BMP180;51893;59.754;10.110;2023-03-14T11:54:02;98477.80;;;3.52
65290;BMP180;51893;59.754;10.110;2023-03-14T11:56:47;98478.40;;;3.46
65290;BMP180;51893;59.754;10.110;2023-03-14T11:59:44;98474.60;;;3.40
65290;BMP180;51893;59.754;10.110;2023-03-14T12:08:49;98476.40;;;3.22
65290;BMP180;51893;59.754;10.110;2023-03-14T12:14:00;98482.80;;;3.50
65290;BMP180;51893;59.754;10.110;2023-03-14T12:16:38;98485.20;;;3.60
65290;BMP180;51893;59.754;10.110;2023-03-14T12:21:57;98497.40;;;4.00
65290;BMP180;51893;59.754;10.110;2023-03-14T12:24:31;98499.20;;;4.14
65290;BMP180;51893;59.754;10.110;2023-03-14T12:27:04;98513.80;;;4.30
65290;BMP180;51893;59.754;10.110;2023-03-14T12:29:59;98517.60;;;4.30
65290;BMP180;51893;59.754;10.110;2023-03-14T12:32:31;98532.80;;;4.40
65290;BMP180;51893;59.754;10.110;2023-03-14T12:35:33;98535.40;;;4.50
65290;BMP180;51893;59.754;10.110;2023-03-14T12:38:15;98542.20;;;4.70
65290;BMP180;51893;59.754;10.110;2023-03-14T12:43:33;98550.20;;;4.80
65290;BMP180;51893;59.754;10.110;2023-03-14T12:49:08;98562.80;;;5.00
65290;BMP180;51893;59.754;10.110;2023-03-14T12:51:42;98574.40;;;4.92
65290;BMP180;51893;59.754;10.110;2023-03-14T12:57:45;98594.80;;;5.00
65290;BMP180;51893;59.754;10.110;2023-03-14T13:00:32;98595.40;;;5.00
65290;BMP180;51893;59.754;10.110;2023-03-14T13:03:19;98608.80;;;5.10
65290;BMP180;51893;59.754;10.110;2023-03-14T13:06:00;98615.40;;;5.10
65290;BMP180;51893;59.754;10.110;2023-03-14T13:08:43;98622.80;;;5.10
65290;BMP180;51893;59.754;10.110;2023-03-14T13:11:21;98629.20;;;5.02
65290;BMP180;51893;59.754;10.110;2023-03-14T13:13:56;98629.60;;;4.90
65290;BMP180;51893;59.754;10.110;2023-03-14T13:16:27;98636.60;;;4.90
65290;BMP180;51893;59.754;10.110;2023-03-14T13:19:20;98639.20;;;4.88
65290;BMP180;51893;59.754;10.110;2023-03-14T13:22:03;98648.00;;;4.70
65290;BMP180;51893;59.754;10.110;2023-03-14T13:24:34;98648.60;;;4.70
65290;BMP180;51893;59.754;10.110;2023-03-14T13:27:03;98654.00;;;4.70
65290;BMP180;51893;59.754;10.110;2023-03-14T13:29:32;98653.20;;;4.70
65290;BMP180;51893;59.754;10.110;2023-03-14T13:32:17;98652.00;;;4.70
65290;BMP180;51893;59.754;10.110;2023-03-14T13:34:46;98662.20;;;4.60
65290;BMP180;51893;59.754;10.110;2023-03-14T13:37:22;98666.20;;;4.50
65290;BMP180;51893;59.754;10.110;2023-03-14T13:39:58;98665.20;;;4.40
65290;BMP180;51893;59.754;10.110;2023-03-14T13:42:28;98667.40;;;4.30
65290;BMP180;51893;59.754;10.110;2023-03-14T13:44:57;98668.80;;;4.26
65290;BMP180;51893;59.754;10.110;2023-03-14T13:47:26;98671.20;;;4.20
65290;BMP180;51893;59.754;10.110;2023-03-14T13:49:55;98672.00;;;4.20
65290;BMP180;51893;59.754;10.110;2023-03-14T13:52:35;98669.20;;;4.20
65290;BMP180;51893;59.754;10.110;2023-03-14T13:55:15;98663.20;;;4.20
65290;BMP180;51893;59.754;10.110;2023-03-14T13:57:51;98671.20;;;4.20
65290;BMP180;51893;59.754;10.110;2023-03-14T14:00:26;98679.80;;;4.20
65290;BMP180;51893;59.754;10.110;2023-03-14T14:02:58;98684.20;;;4.10
65290;BMP180;51893;59.754;10.110;2023-03-14T14:05:29;98695.80;;;4.10
65290;BMP180;51893;59.754;10.110;2023-03-14T14:08:02;98698.20;;;4.02
65290;BMP180;51893;59.754;10.110;2023-03-14T14:10:32;98705.40;;;4.00
65290;BMP180;51893;59.754;10.110;2023-03-14T14:13:06;98712.40;;;4.00
65290;BMP180;51893;59.754;10.110;2023-03-14T14:15:43;98719.00;;;3.98
65290;BMP180;51893;59.754;10.110;2023-03-14T14:18:18;98720.20;;;3.90
65290;BMP180;51893;59.754;10.110;2023-03-14T14:20:51;98726.00;;;3.90
65290;BMP180;51893;59.754;10.110;2023-03-14T14:23:23;98726.20;;;3.90
65290;BMP180;51893;59.754;10.110;2023-03-14T14:26:05;98721.60;;;3.90
65290;BMP180;51893;59.754;10.110;2023-03-14T14:28:38;98719.00;;;3.84
65290;BMP180;51893;59.754;10.110;2023-03-14T14:33:57;98736.20;;;3.80
65290;BMP180;51893;59.754;10.110;2023-03-14T14:36:37;98741.40;;;3.80
65290;BMP180;51893;59.754;10.110;2023-03-14T14:39:20;98747.00;;;3.80
65290;BMP180;51893;59.754;10.110;2023-03-14T14:41:51;98756.20;;;3.90
65290;BMP180;51893;59.754;10.110;2023-03-14T14:44:34;98756.00;;;3.90
65290;BMP180;51893;59.754;10.110;2023-03-14T14:47:04;98761.80;;;3.90
65290;BMP180;51893;59.754;10.110;2023-03-14T14:49:34;98762.60;;;3.90
65290;BMP180;51893;59.754;10.110;2023-03-14T14:52:12;98767.80;;;3.90
65290;BMP180;51893;59.754;10.110;2023-03-14T14:55:17;98777.20;;;3.90
65290;BMP180;51893;59.754;10.110;2023-03-14T14:57:53;98781.00;;;3.90
65290;BMP180;51893;59.754;10.110;2023-03-14T15:00:27;98779.40;;;3.90
65290;BMP180;51893;59.754;10.110;2023-03-14T15:02:59;98777.80;;;3.90
65290;BMP180;51893;59.754;10.110;2023-03-14T15:05:30;98783.00;;;3.84
65290;BMP180;51893;59.754;10.110;2023-03-14T15:08:09;98790.40;;;3.80
65290;BMP180;51893;59.754;10.110;2023-03-14T15:10:40;98798.00;;;3.80
65290;BMP180;51893;59.754;10.110;2023-03-14T15:13:08;98800.60;;;3.70
65290;BMP180;51893;59.754;10.110;2023-03-14T15:15:37;98800.60;;;3.70